Time;durP1;ratioP1;P1;durP2;ratioP2;P2;SDS_P1;SDS_P2;PMS_P1;PMS_P2;Temp;Humidity;BMP_temperature;BMP_pressure;BME280_temperature;BME280_humidity;BME280_pressure;Samples;Min_cycle;Max_cycle;Signal;HPM_P1;HPM_P2
2023/09/16 00:00:56;;;;;;;20.40;13.13;;;;;;;;;;5044100;28;20534;-83
2023/09/16 00:03:22;;;;;;;25.17;12.40;;;;;;;;;;5042225;28;20287;-83
2023/09/16 00:05:48;;;;;;;20.08;12.50;;;;;;;;;;5021440;28;20032;-82
2023/09/16 00:08:13;;;;;;;21.73;12.93;;;;;;;;;;5045546;28;20538;-83
2023/09/16 00:10:39;;;;;;;19.67;12.93;;;;;;;;;;5045483;28;20025;-83
2023/09/16 00:13:04;;;;;;;24.20;13.40;;;;;;;;;;5036054;28;20362;-83
2023/09/16 00:15:29;;;;;;;18.52;13.05;;;;;;;;;;5042559;28;20476;-83
2023/09/16 00:17:55;;;;;;;17.17;11.33;;;;;;;;;;5044848;28;20033;-83
2023/09/16 00:20:21;;;;;;;18.87;11.50;;;;;;;;;;5048073;28;20769;-76
2023/09/16 00:22:47;;;;;;;17.95;11.55;;;;;;;;;;5042405;28;20962;-76
2023/09/16 00:25:12;;;;;;;19.02;12.35;;;;;;;;;;5047091;28;20092;-76
2023/09/16 00:27:40;;;;;;;23.90;13.23;;;;;;;;;;5043363;28;20053;-76
2023/09/16 00:30:06;;;;;;;18.05;11.73;;;;;;;;;;5033944;28;20021;-76
2023/09/16 00:32:32;;;;;;;20.35;12.70;;;;;;;;;;5039724;28;20025;-76
2023/09/16 00:34:57;;;;;;;22.00;13.80;;;;;;;;;;5036289;28;20059;-76
2023/09/16 00:37:22;;;;;;;24.45;13.85;;;;;;;;;;5044208;28;20079;-76
2023/09/16 00:39:48;;;;;;;21.10;12.40;;;;;;;;;;5043665;28;20078;-77
2023/09/16 00:42:13;;;;;;;18.23;11.07;;;;;;;;;;5043794;28;20267;-76
2023/09/16 00:44:39;;;;;;;20.20;11.73;;;;;;;;;;5030444;28;20022;-77
2023/09/16 00:47:04;;;;;;;19.75;14.02;;;;;;;;;;5025898;28;20354;-76
2023/09/16 00:49:30;;;;;;;19.20;12.13;;;;;;;;;;5034824;28;20088;-76
2023/09/16 00:51:59;;;;;;;24.38;13.07;;;;;;;;;;5034640;28;20503;-76
2023/09/16 00:54:24;;;;;;;19.65;13.43;;;;;;;;;;5040458;28;20029;-77
2023/09/16 00:56:49;;;;;;;26.00;13.85;;;;;;;;;;5043892;28;20040;-77
2023/09/16 00:59:15;;;;;;;22.60;13.27;;;;;;;;;;5034198;28;20017;-77
2023/09/16 01:01:41;;;;;;;30.08;14.80;;;;;;;;;;5042640;28;20044;-77
2023/09/16 01:04:07;;;;;;;18.83;12.93;;;;;;;;;;5040268;28;20013;-77
2023/09/16 01:06:32;;;;;;;27.05;13.57;;;;;;;;;;5038844;28;20120;-77
2023/09/16 01:08:58;;;;;;;23.00;14.70;;;;;;;;;;5033959;28;20029;-77
2023/09/16 01:11:24;;;;;;;21.52;13.73;;;;;;;;;;5018966;28;20412;-77
2023/09/16 01:13:50;;;;;;;27.73;14.10;;;;;;;;;;5045539;28;20454;-76
2023/09/16 01:16:34;;;;;;;22.92;14.30;;;;;;;;;;5040697;28;20502;-77
2023/09/16 01:19:05;;;;;;;20.48;13.35;;;;;;;;;;5026241;28;20104;-75
2023/09/16 01:21:30;;;;;;;24.52;14.43;;;;;;;;;;5033341;28;20076;-76
2023/09/16 01:24:15;;;;;;;18.98;14.25;;;;;;;;;;5024531;28;20018;-75
2023/09/16 01:26:40;;;;;;;28.45;13.95;;;;;;;;;;5039072;28;20041;-75
2023/09/16 01:29:05;;;;;;;20.77;13.88;;;;;;;;;;5035259;28;20485;-76
2023/09/16 01:31:31;;;;;;;34.60;13.43;;;;;;;;;;5023776;28;20021;-76
2023/09/16 01:33:58;;;;;;;23.10;14.52;;;;;;;;;;5044622;28;20021;-75
2023/09/16 01:36:25;;;;;;;22.80;13.70;;;;;;;;;;5039830;28;20017;-76
2023/09/16 01:38:55;;;;;;;24.48;15.13;;;;;;;;;;5033121;28;20040;-76
2023/09/16 01:41:21;;;;;;;26.35;15.05;;;;;;;;;;5038565;28;20036;-76
2023/09/16 01:43:47;;;;;;;22.77;15.80;;;;;;;;;;5043609;28;20029;-75
2023/09/16 01:46:12;;;;;;;23.08;13.35;;;;;;;;;;5042155;28;20025;-76
2023/09/16 01:48:38;;;;;;;28.42;15.20;;;;;;;;;;5038054;28;20017;-75
2023/09/16 01:51:03;;;;;;;26.35;15.00;;;;;;;;;;5045151;28;20064;-75
2023/09/16 01:53:28;;;;;;;25.80;15.53;;;;;;;;;;5040696;28;20607;-76
2023/09/16 01:55:53;;;;;;;23.90;15.33;;;;;;;;;;5041707;28;20307;-75
2023/09/16 01:58:19;;;;;;;27.67;15.03;;;;;;;;;;5033784;28;20298;-75
2023/09/16 02:00:44;;;;;;;25.63;15.80;;;;;;;;;;5040288;28;20495;-75
2023/09/16 02:03:10;;;;;;;23.17;15.75;;;;;;;;;;5046373;28;20292;-76
2023/09/16 02:05:35;;;;;;;25.58;16.23;;;;;;;;;;5042740;28;20400;-76
2023/09/16 02:08:00;;;;;;;22.13;14.57;;;;;;;;;;5035584;28;20017;-76
2023/09/16 02:10:26;;;;;;;39.72;15.40;;;;;;;;;;5040370;28;21043;-75
2023/09/16 02:12:51;;;;;;;23.20;15.90;;;;;;;;;;5021177;28;20018;-75
2023/09/16 02:15:17;;;;;;;25.75;15.48;;;;;;;;;;5032426;28;20488;-76
2023/09/16 02:17:42;;;;;;;27.30;15.82;;;;;;;;;;5039237;28;20542;-75
2023/09/16 02:20:11;;;;;;;30.50;16.80;;;;;;;;;;5039765;28;20049;-76
2023/09/16 02:22:41;;;;;;;24.80;16.25;;;;;;;;;;5044890;28;20346;-76
2023/09/16 02:25:06;;;;;;;23.98;16.35;;;;;;;;;;5046459;28;20021;-76
2023/09/16 02:27:32;;;;;;;27.23;16.13;;;;;;;;;;5037207;28;20060;-75
2023/09/16 02:29:57;;;;;;;27.13;15.43;;;;;;;;;;5033980;28;20021;-75
2023/09/16 02:32:22;;;;;;;30.92;15.95;;;;;;;;;;5033570;28;20075;-76
2023/09/16 02:34:48;;;;;;;23.83;17.10;;;;;;;;;;5045891;28;20021;-75
2023/09/16 02:37:13;;;;;;;27.80;16.63;;;;;;;;;;5038914;28;20456;-75
2023/09/16 02:39:39;;;;;;;25.55;16.15;;;;;;;;;;5042954;28;20404;-75
2023/09/16 02:42:05;;;;;;;30.92;17.77;;;;;;;;;;5016733;28;20035;-75
2023/09/16 02:44:30;;;;;;;26.40;16.98;;;;;;;;;;5032925;28;20556;-76
2023/09/16 02:46:55;;;;;;;23.20;16.33;;;;;;;;;;5042059;28;20021;-76
2023/09/16 02:49:21;;;;;;;27.65;16.95;;;;;;;;;;5038338;28;20083;-76
2023/09/16 02:51:46;;;;;;;28.57;16.77;;;;;;;;;;5039379;28;20024;-75
2023/09/16 02:54:11;;;;;;;26.50;16.10;;;;;;;;;;5040975;28;20327;-76
2023/09/16 02:56:36;;;;;;;25.43;17.30;;;;;;;;;;5026383;28;20287;-75
2023/09/16 02:59:02;;;;;;;32.63;18.23;;;;;;;;;;5037239;28;20290;-76
2023/09/16 03:01:27;;;;;;;37.42;18.67;;;;;;;;;;5044294;28;20025;-75
2023/09/16 03:03:52;;;;;;;32.80;18.90;;;;;;;;;;5038007;28;20017;-75
2023/09/16 03:06:18;;;;;;;29.00;17.07;;;;;;;;;;5033497;28;20095;-75
2023/09/16 03:08:43;;;;;;;34.95;18.15;;;;;;;;;;5034212;28;20358;-75
2023/09/16 03:11:08;;;;;;;25.55;17.63;;;;;;;;;;5039136;28;20025;-75
2023/09/16 03:13:34;;;;;;;32.13;17.35;;;;;;;;;;5043608;28;20040;-76
2023/09/16 03:16:16;;;;;;;28.73;17.67;;;;;;;;;;5037741;28;20032;-76
2023/09/16 03:18:45;;;;;;;26.67;17.07;;;;;;;;;;5037762;28;20299;-76
2023/09/16 03:21:11;;;;;;;23.02;16.45;;;;;;;;;;5030157;28;20032;-76
2023/09/16 03:23:36;;;;;;;32.88;18.08;;;;;;;;;;5041402;28;20033;-76
2023/09/16 03:26:01;;;;;;;36.53;18.85;;;;;;;;;;5045192;28;20029;-76
2023/09/16 03:28:27;;;;;;;35.63;18.27;;;;;;;;;;5047449;28;20079;-76
2023/09/16 03:30:52;;;;;;;30.73;17.23;;;;;;;;;;5034959;28;20040;-76
2023/09/16 03:33:17;;;;;;;30.87;17.07;;;;;;;;;;5026366;28;20696;-76
2023/09/16 03:35:43;;;;;;;27.03;17.53;;;;;;;;;;5049231;28;20358;-76
2023/09/16 03:38:09;;;;;;;25.33;17.35;;;;;;;;;;5045666;28;20025;-76
2023/09/16 03:40:34;;;;;;;27.98;17.60;;;;;;;;;;5038014;28;20036;-76
2023/09/16 03:42:59;;;;;;;30.10;18.27;;;;;;;;;;5041695;28;20025;-76
2023/09/16 03:45:24;;;;;;;29.67;19.77;;;;;;;;;;5047440;28;20399;-76
2023/09/16 03:47:50;;;;;;;34.47;18.27;;;;;;;;;;5047069;28;20060;-76
2023/09/16 03:50:15;;;;;;;34.90;18.90;;;;;;;;;;5038555;28;20271;-78
2023/09/16 03:52:40;;;;;;;28.23;18.23;;;;;;;;;;5024630;28;20353;-76
2023/09/16 03:55:05;;;;;;;30.15;18.67;;;;;;;;;;5045218;28;20788;-76
2023/09/16 03:57:31;;;;;;;31.65;18.83;;;;;;;;;;5039928;28;20040;-76
2023/09/16 03:59:56;;;;;;;33.47;18.27;;;;;;;;;;5040284;28;20034;-76
2023/09/16 04:02:21;;;;;;;41.63;18.97;;;;;;;;;;5039483;28;20029;-76
2023/09/16 04:04:46;;;;;;;30.63;18.57;;;;;;;;;;5028113;28;20483;-76
2023/09/16 04:07:12;;;;;;;36.03;20.17;;;;;;;;;;5046365;28;20371;-76
2023/09/16 04:09:37;;;;;;;34.37;19.80;;;;;;;;;;5018166;28;20360;-76
2023/09/16 04:12:02;;;;;;;27.40;18.07;;;;;;;;;;5035435;28;20827;-76
2023/09/16 04:14:28;;;;;;;28.33;18.63;;;;;;;;;;5042800;28;20395;-76
2023/09/16 04:16:53;;;;;;;31.95;18.92;;;;;;;;;;5039752;28;20570;-76
2023/09/16 04:19:18;;;;;;;35.10;18.53;;;;;;;;;;5044837;28;20037;-76
2023/09/16 04:21:46;;;;;;;32.30;19.40;;;;;;;;;;5046090;28;20291;-77
2023/09/16 04:24:11;;;;;;;31.15;17.83;;;;;;;;;;5025256;28;20302;-76
2023/09/16 04:26:37;;;;;;;32.22;18.63;;;;;;;;;;5043056;28;20392;-76
2023/09/16 04:29:02;;;;;;;34.40;18.35;;;;;;;;;;5036669;28;20120;-76
2023/09/16 04:31:29;;;;;;;31.58;18.08;;;;;;;;;;5040105;28;20025;-76
2023/09/16 04:33:55;;;;;;;32.70;18.85;;;;;;;;;;5040072;28;20513;-76
2023/09/16 04:36:20;;;;;;;29.00;17.48;;;;;;;;;;5040933;28;20014;-76
2023/09/16 04:38:47;;;;;;;28.20;17.83;;;;;;;;;;5034928;28;20450;-76
2023/09/16 04:41:13;;;;;;;34.90;19.08;;;;;;;;;;5035885;28;20359;-76
2023/09/16 04:43:39;;;;;;;27.65;18.38;;;;;;;;;;5043220;28;20048;-76
2023/09/16 04:46:05;;;;;;;32.83;18.85;;;;;;;;;;5039037;28;20469;-76
2023/09/16 04:48:30;;;;;;;27.27;18.33;;;;;;;;;;5040507;28;20033;-76
2023/09/16 04:50:56;;;;;;;29.30;18.25;;;;;;;;;;5045128;28;20804;-77
2023/09/16 04:53:21;;;;;;;26.10;17.98;;;;;;;;;;5044987;28;20028;-76
2023/09/16 04:55:46;;;;;;;30.02;18.45;;;;;;;;;;5044722;28;20036;-77
2023/09/16 04:58:12;;;;;;;25.90;17.17;;;;;;;;;;5036935;28;20031;-76
2023/09/16 05:00:38;;;;;;;34.13;18.37;;;;;;;;;;5041847;28;20284;-83
2023/09/16 05:03:04;;;;;;;32.70;20.02;;;;;;;;;;5040065;28;20283;-83
2023/09/16 05:05:29;;;;;;;31.30;18.77;;;;;;;;;;5045154;28;20044;-83
2023/09/16 05:07:55;;;;;;;27.67;16.52;;;;;;;;;;5019327;28;20396;-83
2023/09/16 05:10:20;;;;;;;35.15;18.67;;;;;;;;;;5035794;28;20398;-83
2023/09/16 05:12:45;;;;;;;23.02;16.13;;;;;;;;;;5035855;28;20119;-83
2023/09/16 05:15:11;;;;;;;32.00;17.20;;;;;;;;;;5036199;28;20096;-83
2023/09/16 05:17:37;;;;;;;26.05;16.50;;;;;;;;;;5038911;28;20034;-83
2023/09/16 05:20:02;;;;;;;31.45;18.02;;;;;;;;;;5035162;28;20014;-84
2023/09/16 05:22:28;;;;;;;24.90;17.30;;;;;;;;;;5045047;28;20052;-84
2023/09/16 05:24:53;;;;;;;26.85;16.95;;;;;;;;;;5039081;28;20022;-83
2023/09/16 05:27:18;;;;;;;31.27;17.52;;;;;;;;;;5049453;28;20411;-84
2023/09/16 05:29:44;;;;;;;28.13;17.90;;;;;;;;;;5037060;28;20040;-83
2023/09/16 05:32:09;;;;;;;31.92;17.80;;;;;;;;;;5037394;28;20299;-83
2023/09/16 05:34:34;;;;;;;26.42;18.27;;;;;;;;;;5036978;28;20493;-82
2023/09/16 05:37:00;;;;;;;30.37;18.60;;;;;;;;;;5038470;28;20045;-83
2023/09/16 05:39:25;;;;;;;32.00;18.42;;;;;;;;;;5035332;28;20287;-82
2023/09/16 05:41:50;;;;;;;29.07;18.27;;;;;;;;;;5045403;28;20041;-83
2023/09/16 05:44:19;;;;;;;26.03;17.17;;;;;;;;;;5031950;28;20296;-82
2023/09/16 05:46:45;;;;;;;31.90;18.10;;;;;;;;;;5039250;28;20049;-82
2023/09/16 05:49:11;;;;;;;27.37;18.43;;;;;;;;;;5026342;28;20069;-83
2023/09/16 05:51:36;;;;;;;37.35;19.13;;;;;;;;;;5034515;28;20387;-83
2023/09/16 05:54:02;;;;;;;28.50;18.27;;;;;;;;;;5038805;28;20028;-85
2023/09/16 05:56:27;;;;;;;34.08;17.58;;;;;;;;;;5035186;28;20040;-85
2023/09/16 05:58:52;;;;;;;32.53;17.67;;;;;;;;;;5037073;28;20112;-84
2023/09/16 06:01:18;;;;;;;28.48;18.67;;;;;;;;;;5018260;28;20070;-84
2023/09/16 06:03:43;;;;;;;28.20;18.13;;;;;;;;;;5016333;28;20037;-85
2023/09/16 06:06:08;;;;;;;29.83;18.43;;;;;;;;;;5042649;28;20761;-85
2023/09/16 06:08:34;;;;;;;32.28;18.80;;;;;;;;;;5034349;28;20298;-85
2023/09/16 06:10:59;;;;;;;30.60;18.67;;;;;;;;;;5031987;28;20087;-78
2023/09/16 06:13:25;;;;;;;33.60;19.00;;;;;;;;;;5036770;28;20135;-78
2023/09/16 06:15:50;;;;;;;30.48;17.83;;;;;;;;;;5029963;28;20291;-77
2023/09/16 06:18:15;;;;;;;34.87;18.33;;;;;;;;;;5030224;28;20098;-77
2023/09/16 06:20:40;;;;;;;28.13;17.58;;;;;;;;;;5030128;28;20119;-77
2023/09/16 06:23:07;;;;;;;27.50;16.65;;;;;;;;;;5027900;28;20396;-78
2023/09/16 06:25:34;;;;;;;31.48;17.23;;;;;;;;;;5033038;28;20025;-78
2023/09/16 06:27:59;;;;;;;35.67;16.80;;;;;;;;;;5034459;28;20029;-76
2023/09/16 06:30:24;;;;;;;27.98;15.18;;;;;;;;;;5032446;28;20060;-77
2023/09/16 06:32:52;;;;;;;27.95;16.33;;;;;;;;;;5032587;28;20116;-76
2023/09/16 06:35:17;;;;;;;26.75;15.45;;;;;;;;;;5035083;28;20013;-77
2023/09/16 06:37:43;;;;;;;38.60;15.70;;;;;;;;;;5037534;28;20439;-77
2023/09/16 06:40:08;;;;;;;26.57;16.37;;;;;;;;;;5038026;28;20275;-76
2023/09/16 06:42:33;;;;;;;29.35;16.63;;;;;;;;;;5035412;28;20129;-76
2023/09/16 06:44:59;;;;;;;28.77;15.73;;;;;;;;;;5040947;28;20020;-76
2023/09/16 06:47:26;;;;;;;28.83;15.40;;;;;;;;;;5016057;28;20623;-77
2023/09/16 06:49:52;;;;;;;31.73;16.02;;;;;;;;;;5037324;28;20342;-77
2023/09/16 06:52:17;;;;;;;32.42;15.63;;;;;;;;;;5018944;28;20425;-77
2023/09/16 06:54:42;;;;;;;26.13;13.80;;;;;;;;;;5035743;28;20039;-77
2023/09/16 06:57:07;;;;;;;26.73;14.50;;;;;;;;;;5037508;28;20272;-77
2023/09/16 06:59:33;;;;;;;25.07;14.37;;;;;;;;;;5028103;28;20358;-78
2023/09/16 07:01:58;;;;;;;27.15;13.88;;;;;;;;;;5035135;28;20307;-78
2023/09/16 07:04:26;;;;;;;26.40;14.23;;;;;;;;;;5016424;28;20029;-78
2023/09/16 07:06:52;;;;;;;28.45;14.23;;;;;;;;;;5031322;28;20290;-79
2023/09/16 07:09:17;;;;;;;23.27;13.20;;;;;;;;;;5038383;28;20016;-78
2023/09/16 07:11:44;;;;;;;27.63;14.25;;;;;;;;;;5036383;28;20333;-78
2023/09/16 07:14:10;;;;;;;27.42;14.02;;;;;;;;;;5036058;28;20030;-78
2023/09/16 07:16:40;;;;;;;26.02;14.20;;;;;;;;;;5034509;28;20037;-78
2023/09/16 07:19:06;;;;;;;26.23;14.43;;;;;;;;;;5037851;28;20029;-78
2023/09/16 07:21:31;;;;;;;27.02;13.98;;;;;;;;;;5039479;28;20032;-78
2023/09/16 07:24:00;;;;;;;27.40;14.00;;;;;;;;;;5039434;28;20372;-78
2023/09/16 07:26:26;;;;;;;34.65;13.85;;;;;;;;;;5038586;28;20046;-78
2023/09/16 07:28:51;;;;;;;29.08;13.65;;;;;;;;;;5033230;28;20030;-78
2023/09/16 07:31:17;;;;;;;24.23;13.17;;;;;;;;;;5044665;28;20175;-79
2023/09/16 07:33:42;;;;;;;27.73;15.23;;;;;;;;;;5040179;28;20307;-78
2023/09/16 07:36:07;;;;;;;20.73;14.07;;;;;;;;;;5040612;28;20332;-78
2023/09/16 07:38:32;;;;;;;22.57;12.53;;;;;;;;;;5042528;28;20029;-79
2023/09/16 07:40:58;;;;;;;22.53;13.27;;;;;;;;;;5040191;28;20287;-79
2023/09/16 07:43:23;;;;;;;22.43;13.70;;;;;;;;;;5030365;28;20356;-79
2023/09/16 07:45:48;;;;;;;27.57;13.63;;;;;;;;;;5021191;28;20288;-79
2023/09/16 07:48:14;;;;;;;23.95;13.07;;;;;;;;;;5019971;28;20774;-79
2023/09/16 07:50:39;;;;;;;23.40;12.52;;;;;;;;;;5045324;28;20048;-79
2023/09/16 07:53:05;;;;;;;20.37;12.77;;;;;;;;;;5034219;28;20033;-79
2023/09/16 07:55:30;;;;;;;21.77;12.90;;;;;;;;;;5020457;28;20305;-79
2023/09/16 07:57:55;;;;;;;23.53;13.00;;;;;;;;;;5035067;28;20025;-79
2023/09/16 08:00:20;;;;;;;26.70;13.00;;;;;;;;;;5036595;28;20446;-79
2023/09/16 08:02:46;;;;;;;18.63;11.43;;;;;;;;;;5037074;28;20423;-79
2023/09/16 08:05:11;;;;;;;17.67;12.00;;;;;;;;;;5023262;28;20026;-79
2023/09/16 08:07:36;;;;;;;22.47;11.53;;;;;;;;;;5041004;28;20300;-79
2023/09/16 08:10:02;;;;;;;22.17;13.10;;;;;;;;;;5041889;28;20271;-79
2023/09/16 08:12:27;;;;;;;21.60;12.75;;;;;;;;;;5036211;28;20100;-79
2023/09/16 08:14:52;;;;;;;19.43;12.70;;;;;;;;;;5037375;28;20479;-79
2023/09/16 08:17:18;;;;;;;18.77;13.10;;;;;;;;;;5035239;28;20316;-79
2023/09/16 08:19:43;;;;;;;21.33;13.30;;;;;;;;;;5040122;28;20032;-79
2023/09/16 08:22:08;;;;;;;24.23;13.67;;;;;;;;;;5041155;28;20067;-79
2023/09/16 08:24:34;;;;;;;22.73;12.00;;;;;;;;;;5040193;28;20812;-79
2023/09/16 08:26:59;;;;;;;17.85;12.35;;;;;;;;;;5037238;28;20064;-79
2023/09/16 08:29:25;;;;;;;20.67;12.85;;;;;;;;;;5034511;28;20013;-79
2023/09/16 08:31:50;;;;;;;19.98;11.60;;;;;;;;;;5038078;28;20456;-86
2023/09/16 08:34:16;;;;;;;20.23;12.37;;;;;;;;;;5038486;28;20511;-86
2023/09/16 08:36:41;;;;;;;19.53;10.80;;;;;;;;;;5023671;28;20303;-85
2023/09/16 08:39:06;;;;;;;19.30;11.80;;;;;;;;;;5038166;28;20284;-85
2023/09/16 08:41:48;;;;;;;21.20;11.87;;;;;;;;;;5043020;28;20280;-85
2023/09/16 08:44:14;;;;;;;20.55;11.32;;;;;;;;;;5039896;28;20075;-86
2023/09/16 08:46:46;;;;;;;18.00;11.45;;;;;;;;;;5039936;28;20488;-86
2023/09/16 08:49:12;;;;;;;18.92;11.20;;;;;;;;;;5042796;28;20024;-87
2023/09/16 08:51:41;;;;;;;16.77;11.30;;;;;;;;;;5046833;28;20059;-86
2023/09/16 08:54:07;;;;;;;15.85;10.88;;;;;;;;;;5035221;28;20033;-85
2023/09/16 08:56:33;;;;;;;19.23;10.80;;;;;;;;;;5036481;28;20017;-85
2023/09/16 08:58:59;;;;;;;17.45;10.93;;;;;;;;;;5034385;28;20030;-85
2023/09/16 09:01:25;;;;;;;18.08;11.35;;;;;;;;;;5031592;28;20068;-85
2023/09/16 09:03:50;;;;;;;20.27;11.02;;;;;;;;;;5037463;28;20029;-85
2023/09/16 09:06:17;;;;;;;18.15;11.48;;;;;;;;;;5041022;28;20022;-85
2023/09/16 09:08:42;;;;;;;17.60;11.40;;;;;;;;;;5032034;28;20026;-85
2023/09/16 09:11:12;;;;;;;19.93;11.93;;;;;;;;;;5038240;28;20097;-85
2023/09/16 09:13:38;;;;;;;18.10;12.15;;;;;;;;;;5037928;28;20307;-85
2023/09/16 09:16:03;;;;;;;15.88;11.20;;;;;;;;;;5035324;28;20072;-85
2023/09/16 09:18:29;;;;;;;22.13;13.07;;;;;;;;;;5038410;28;20032;-86
2023/09/16 09:20:55;;;;;;;20.08;12.40;;;;;;;;;;5034474;28;20449;-85
2023/09/16 09:23:21;;;;;;;18.27;12.40;;;;;;;;;;5026884;28;20041;-87
2023/09/16 09:25:46;;;;;;;30.15;14.15;;;;;;;;;;5036375;28;20019;-86
2023/09/16 09:28:13;;;;;;;21.97;12.77;;;;;;;;;;5031022;28;20489;-87
2023/09/16 09:30:40;;;;;;;22.85;12.63;;;;;;;;;;5028473;28;20290;-86
2023/09/16 09:33:09;;;;;;;28.13;14.10;;;;;;;;;;5037931;28;20153;-86
2023/09/16 09:35:34;;;;;;;20.63;13.90;;;;;;;;;;5017725;28;20056;-87
2023/09/16 09:38:00;;;;;;;23.60;13.77;;;;;;;;;;5038652;28;20437;-82
2023/09/16 09:40:25;;;;;;;19.87;13.67;;;;;;;;;;5039673;28;20067;-80
2023/09/16 09:42:51;;;;;;;21.60;14.15;;;;;;;;;;5043554;28;20027;-80
2023/09/16 09:45:17;;;;;;;18.05;13.45;;;;;;;;;;5038074;28;20024;-80
2023/09/16 09:47:43;;;;;;;21.13;13.90;;;;;;;;;;5033843;28;20076;-80
2023/09/16 09:50:13;;;;;;;18.77;14.07;;;;;;;;;;5034961;28;20483;-80
2023/09/16 09:52:44;;;;;;;19.88;13.80;;;;;;;;;;5028889;28;20431;-80
2023/09/16 09:55:09;;;;;;;19.95;13.48;;;;;;;;;;5030659;28;20823;-79
2023/09/16 09:57:34;;;;;;;23.48;15.02;;;;;;;;;;5031276;28;20029;-79
2023/09/16 10:00:00;;;;;;;22.35;14.15;;;;;;;;;;5030439;28;20083;-79
2023/09/16 10:02:30;;;;;;;34.78;14.43;;;;;;;;;;5034397;28;20531;-80
2023/09/16 10:04:58;;;;;;;23.13;14.88;;;;;;;;;;5034758;28;20021;-80
2023/09/16 10:07:25;;;;;;;27.88;15.25;;;;;;;;;;5035612;28;20013;-79
2023/09/16 10:09:50;;;;;;;26.50;14.80;;;;;;;;;;5035538;28;20048;-80
2023/09/16 10:12:16;;;;;;;22.98;14.90;;;;;;;;;;5030378;28;20053;-80
2023/09/16 10:14:41;;;;;;;23.00;15.93;;;;;;;;;;5032756;28;20115;-80
2023/09/16 10:17:06;;;;;;;23.13;17.03;;;;;;;;;;5035638;28;20271;-80
2023/09/16 10:19:32;;;;;;;22.93;16.73;;;;;;;;;;5034392;28;20341;-80
2023/09/16 10:21:57;;;;;;;24.83;16.67;;;;;;;;;;5036049;28;20380;-79
2023/09/16 10:24:23;;;;;;;24.95;17.35;;;;;;;;;;5039991;28;20021;-80
2023/09/16 10:26:48;;;;;;;27.88;16.60;;;;;;;;;;5030019;28;20009;-80
2023/09/16 10:29:14;;;;;;;27.45;18.42;;;;;;;;;;5034749;28;20031;-79
2023/09/16 10:31:40;;;;;;;30.25;18.02;;;;;;;;;;5040010;28;20040;-80
2023/09/16 10:34:06;;;;;;;26.45;17.20;;;;;;;;;;5030808;28;20026;-79
2023/09/16 10:36:33;;;;;;;21.05;14.80;;;;;;;;;;5033951;28;20017;-77
2023/09/16 10:39:00;;;;;;;16.77;13.55;;;;;;;;;;5028771;28;20067;-80
2023/09/16 10:41:26;;;;;;;24.83;15.07;;;;;;;;;;5035975;28;20033;-79
2023/09/16 10:43:52;;;;;;;23.25;14.18;;;;;;;;;;5034688;28;20098;-77
2023/09/16 10:46:18;;;;;;;23.98;14.38;;;;;;;;;;5033626;28;20029;-78
2023/09/16 10:48:43;;;;;;;20.83;13.82;;;;;;;;;;5040357;28;20013;-78
2023/09/16 10:51:15;;;;;;;20.10;13.32;;;;;;;;;;5034538;28;20032;-79
2023/09/16 10:53:41;;;;;;;;;;;;;;;;;;5036209;28;20491;-79
2023/09/16 10:56:25;;;;;;;29.83;13.65;;;;;;;;;;5034280;28;20287;-79
2023/09/16 10:58:54;;;;;;;24.23;13.57;;;;;;;;;;5037973;28;20082;-79
2023/09/16 11:01:26;;;;;;;17.80;13.25;;;;;;;;;;5030623;28;20120;-80
2023/09/16 11:03:53;;;;;;;19.45;13.18;;;;;;;;;;5045777;28;20108;-79
2023/09/16 11:06:18;;;;;;;24.00;13.95;;;;;;;;;;5036653;28;20051;-79
2023/09/16 11:08:44;;;;;;;17.77;13.47;;;;;;;;;;5039575;28;20033;-79
2023/09/16 11:11:10;;;;;;;19.45;13.70;;;;;;;;;;5032979;28;20033;-79
2023/09/16 11:13:35;;;;;;;24.58;14.60;;;;;;;;;;5033426;28;20033;-79
2023/09/16 11:16:01;;;;;;;20.38;13.70;;;;;;;;;;5031213;28;20535;-80
2023/09/16 11:18:28;;;;;;;24.08;14.05;;;;;;;;;;5035972;28;20408;-78
2023/09/16 11:20:53;;;;;;;19.30;14.00;;;;;;;;;;5040473;28;20033;-79
2023/09/16 11:23:20;;;;;;;24.63;14.90;;;;;;;;;;5044105;28;20028;-79
2023/09/16 11:25:47;;;;;;;19.08;13.82;;;;;;;;;;5040190;28;20071;-79
2023/09/16 11:28:13;;;;;;;20.05;13.90;;;;;;;;;;5041491;28;20511;-79
2023/09/16 11:30:39;;;;;;;19.90;14.07;;;;;;;;;;5037434;28;20017;-79
2023/09/16 11:33:08;;;;;;;16.00;12.15;;;;;;;;;;5040735;28;20125;-79
2023/09/16 11:35:36;;;;;;;22.98;14.23;;;;;;;;;;5040375;28;20060;-80
2023/09/16 11:38:01;;;;;;;19.48;12.52;;;;;;;;;;5038832;28;20387;-80
2023/09/16 11:40:27;;;;;;;21.15;13.95;;;;;;;;;;5021492;28;20018;-79
2023/09/16 11:42:52;;;;;;;18.42;13.30;;;;;;;;;;5038150;28;20028;-80
2023/09/16 11:45:18;;;;;;;27.17;15.10;;;;;;;;;;5040345;28;20089;-79
2023/09/16 11:47:46;;;;;;;18.58;13.65;;;;;;;;;;5032042;28;20483;-79
2023/09/16 11:50:24;;;;;;;22.55;15.07;;;;;;;;;;5041903;28;20025;-80
2023/09/16 11:52:50;;;;;;;20.25;13.27;;;;;;;;;;5037908;28;20019;-80
2023/09/16 11:55:17;;;;;;;25.40;15.20;;;;;;;;;;5044530;28;20021;-80
2023/09/16 11:57:43;;;;;;;19.65;12.70;;;;;;;;;;5044828;28;20079;-80
2023/09/16 12:00:09;;;;;;;20.00;14.23;;;;;;;;;;5040035;28;20062;-81
2023/09/16 12:02:35;;;;;;;17.92;13.32;;;;;;;;;;5041390;28;20033;-87
2023/09/16 12:05:03;;;;;;;23.30;13.20;;;;;;;;;;5038872;28;20149;-88
2023/09/16 12:07:31;;;;;;;22.13;12.43;;;;;;;;;;5045992;28;20100;-88
2023/09/16 12:10:00;;;;;;;22.95;14.05;;;;;;;;;;5048344;28;20013;-88
2023/09/16 12:12:27;;;;;;;21.23;12.05;;;;;;;;;;5041658;28;20063;-87
2023/09/16 12:14:55;;;;;;;24.42;15.23;;;;;;;;;;5034620;28;20512;-87
2023/09/16 12:17:21;;;;;;;23.30;15.20;;;;;;;;;;5039914;28;20104;-88
2023/09/16 12:19:53;;;;;;;16.73;12.07;;;;;;;;;;5043455;28;20719;-87
2023/09/16 12:22:18;;;;;;;16.60;11.00;;;;;;;;;;5043492;28;20480;-89
2023/09/16 12:24:44;;;;;;;13.35;10.13;;;;;;;;;;5038495;28;20026;-88
2023/09/16 12:27:10;;;;;;;13.65;8.95;;;;;;;;;;5035527;28;20526;-88
2023/09/16 12:29:35;;;;;;;20.33;11.50;;;;;;;;;;5038794;28;20022;-88
2023/09/16 12:32:09;;;;;;;19.73;12.83;;;;;;;;;;5023889;28;20125;-88
2023/09/16 12:34:35;;;;;;;23.02;14.77;;;;;;;;;;5034141;28;20327;-87
2023/09/16 12:37:00;;;;;;;16.30;11.10;;;;;;;;;;5039078;28;20023;-88
2023/09/16 12:39:26;;;;;;;16.20;10.35;;;;;;;;;;5038702;28;20480;-88
2023/09/16 12:41:54;;;;;;;17.70;12.18;;;;;;;;;;5038833;28;20033;-88
2023/09/16 12:44:19;;;;;;;13.85;9.70;;;;;;;;;;5022778;28;20490;-87
2023/09/16 12:46:44;;;;;;;21.65;11.48;;;;;;;;;;5040372;28;20786;-88
2023/09/16 12:49:10;;;;;;;13.00;9.30;;;;;;;;;;5038308;28;20449;-88
2023/09/16 12:51:35;;;;;;;14.93;9.13;;;;;;;;;;5034239;28;20394;-88
2023/09/16 12:54:01;;;;;;;13.63;8.88;;;;;;;;;;5038205;28;20035;-88
2023/09/16 12:56:26;;;;;;;21.13;11.82;;;;;;;;;;5043488;28;20021;-87
2023/09/16 12:58:51;;;;;;;14.90;10.18;;;;;;;;;;5036448;28;20033;-88
2023/09/16 13:01:20;;;;;;;16.30;10.18;;;;;;;;;;5036986;28;20037;-87
2023/09/16 13:03:46;;;;;;;16.00;9.15;;;;;;;;;;5037782;28;20112;-87
2023/09/16 13:06:11;;;;;;;21.20;10.43;;;;;;;;;;5043474;28;20104;-87
2023/09/16 13:08:37;;;;;;;14.73;8.95;;;;;;;;;;5035318;28;20030;-87
2023/09/16 13:11:02;;;;;;;13.63;9.95;;;;;;;;;;5033801;28;20034;-79
2023/09/16 13:13:30;;;;;;;18.17;10.05;;;;;;;;;;5031219;28;20081;-79
2023/09/16 13:15:57;;;;;;;16.25;11.02;;;;;;;;;;5035603;28;20009;-79
2023/09/16 13:18:23;;;;;;;16.88;10.55;;;;;;;;;;5033935;28;20455;-79
2023/09/16 13:20:52;;;;;;;13.27;9.45;;;;;;;;;;5044095;28;20456;-79
2023/09/16 13:23:25;;;;;;;12.90;8.75;;;;;;;;;;5035194;28;20507;-79
2023/09/16 13:25:50;;;;;;;;;;;;;;;;;;5038829;28;20409;-79
2023/09/16 13:28:20;;;;;;;11.43;7.78;;;;;;;;;;5037019;28;20272;-79
2023/09/16 13:30:48;;;;;;;14.18;10.23;;;;;;;;;;5041692;28;20056;-79
2023/09/16 13:33:14;;;;;;;21.92;12.93;;;;;;;;;;5032022;28;20160;-80
2023/09/16 13:35:42;;;;;;;19.65;12.70;;;;;;;;;;5032274;28;20120;-79
2023/09/16 13:38:08;;;;;;;18.58;12.98;;;;;;;;;;5038604;28;20032;-79
2023/09/16 13:40:34;;;;;;;19.63;11.98;;;;;;;;;;5039382;28;20032;-80
2023/09/16 13:43:01;;;;;;;16.95;10.90;;;;;;;;;;5036664;28;20013;-80
2023/09/16 13:45:26;;;;;;;22.67;13.10;;;;;;;;;;5034834;28;20032;-79
2023/09/16 13:48:14;;;;;;;22.58;14.70;;;;;;;;;;5034549;28;20021;-80
2023/09/16 13:50:41;;;;;;;23.50;13.32;;;;;;;;;;5034530;28;20413;-80
2023/09/16 13:53:06;;;;;;;21.23;12.73;;;;;;;;;;5039253;28;20021;-80
2023/09/16 13:55:33;;;;;;;23.30;16.27;;;;;;;;;;5034239;28;20059;-80
2023/09/16 13:57:58;;;;;;;18.58;12.25;;;;;;;;;;5046978;28;20076;-80
2023/09/16 14:00:24;;;;;;;18.92;13.43;;;;;;;;;;5019795;28;20419;-80
2023/09/16 14:02:49;;;;;;;20.08;11.75;;;;;;;;;;5031409;28;20033;-80
2023/09/16 14:05:15;;;;;;;23.50;13.50;;;;;;;;;;5038090;28;20428;-80
2023/09/16 14:07:40;;;;;;;18.73;12.75;;;;;;;;;;5037895;28;20013;-80
2023/09/16 14:10:05;;;;;;;18.77;12.87;;;;;;;;;;5031940;28;20025;-80
2023/09/16 14:12:31;;;;;;;16.45;10.98;;;;;;;;;;5040539;28;20021;-80